createdAt,value
2022-08-17T00:01:30.080Z,81.80
2022-08-17T00:04:12.319Z,82.04
2022-08-17T00:06:42.870Z,82.03
2022-08-17T00:09:12.806Z,81.49
2022-08-17T00:12:42.111Z,81.86
2022-08-17T00:14:32.868Z,81.86
2022-08-17T00:16:59.489Z,81.88
2022-08-17T00:19:26.901Z,82.16
2022-08-17T00:22:32.814Z,82.00
2022-08-17T00:24:44.072Z,81.78
2022-08-17T00:27:10.568Z,82.25
2022-08-17T00:29:37.023Z,82.05
2022-08-17T00:33:11.875Z,81.78
2022-08-17T00:34:50.944Z,82.44
2022-08-17T00:37:17.469Z,81.98
2022-08-17T00:39:44.254Z,82.52
2022-08-17T00:42:19.532Z,82.29
2022-08-17T00:44:46.723Z,82.51
2022-08-17T00:47:14.002Z,82.48
2022-08-17T00:49:40.650Z,81.87
2022-08-17T00:52:15.527Z,81.55
2022-08-17T00:54:46.465Z,81.90
2022-08-17T00:57:21.813Z,81.65
2022-08-17T01:00:02.655Z,81.28
2022-08-17T01:02:34.442Z,81.19
2022-08-17T01:05:13.674Z,81.64
2022-08-17T01:07:41.421Z,82.09
2022-08-17T01:10:57.279Z,81.84
2022-08-17T01:12:57.998Z,82.03
2022-08-17T01:15:24.606Z,82.25
2022-08-17T01:17:51.150Z,82.14
2022-08-17T01:20:17.804Z,82.51
2022-08-17T01:22:44.422Z,82.50
2022-08-17T01:25:12.583Z,82.41
2022-08-17T01:27:39.419Z,81.80
2022-08-17T01:30:56.813Z,82.11
2022-08-17T01:32:56.952Z,81.81
2022-08-17T01:35:23.533Z,81.73
2022-08-17T01:37:50.387Z,82.10
2022-08-17T01:40:36.158Z,82.04
2022-08-17T01:43:14.465Z,81.82
2022-08-17T01:45:47.670Z,82.59
2022-08-17T01:48:14.892Z,82.04
2022-08-17T01:50:44.556Z,82.57
2022-08-17T01:53:19.235Z,82.58
2022-08-17T01:55:52.379Z,82.93
2022-08-17T01:58:19.933Z,82.30
2022-08-17T02:01:00.556Z,81.98
2022-08-17T02:03:28.749Z,82.28
2022-08-17T02:05:55.666Z,82.53
2022-08-17T02:08:37.052Z,82.66
2022-08-17T02:11:11.900Z,82.17
2022-08-17T02:13:39.161Z,82.40
2022-08-17T02:16:06.062Z,82.11
2022-08-17T02:18:32.724Z,82.17
2022-08-17T02:20:59.536Z,81.72
2022-08-17T02:23:30.523Z,82.12
2022-08-17T02:25:59.724Z,81.75
2022-08-17T02:28:26.317Z,81.97
2022-08-17T02:31:02.589Z,82.30
2022-08-17T02:33:41.863Z,82.30
2022-08-17T02:36:09.276Z,82.58
2022-08-17T02:38:37.686Z,83.08
2022-08-17T02:41:04.544Z,82.18
2022-08-17T02:43:31.898Z,82.57
2022-08-17T02:45:58.322Z,85.45
2022-08-17T02:48:30.437Z,88.70
2022-08-17T02:50:58.481Z,90.09
2022-08-17T02:53:25.643Z,90.47
2022-08-17T02:55:52.687Z,90.85
2022-08-17T02:58:34.326Z,91.31
2022-08-17T03:01:03.229Z,91.48
2022-08-17T03:03:29.802Z,91.38
2022-08-17T03:05:56.409Z,91.54
2022-08-17T03:08:23.355Z,91.33
2022-08-17T03:10:50.505Z,91.79
2022-08-17T03:13:18.088Z,91.29
2022-08-17T03:15:45.928Z,90.70
2022-08-17T03:18:25.096Z,89.54
2022-08-17T03:20:59.621Z,90.23
2022-08-17T03:23:29.547Z,89.88
2022-08-17T03:25:57.101Z,90.59
2022-08-17T03:28:24.220Z,91.18
2022-08-17T03:30:51.626Z,91.16
2022-08-17T03:33:18.997Z,91.00
2022-08-17T03:35:46.195Z,90.86
2022-08-17T03:38:15.885Z,90.62
2022-08-17T03:40:57.160Z,90.95
2022-08-17T03:43:31.737Z,91.23
2022-08-17T03:46:33.917Z,91.15
2022-08-17T03:49:23.336Z,91.22
2022-08-17T03:52:08.637Z,91.83
2022-08-17T03:54:53.604Z,91.25
2022-08-17T03:57:20.290Z,91.12
2022-08-17T03:59:47.571Z,91.46
2022-08-17T04:02:20.216Z,90.58
2022-08-17T04:04:46.913Z,88.98
2022-08-17T04:07:13.468Z,88.71
2022-08-17T04:09:40.006Z,87.85
2022-08-17T04:12:09.317Z,86.99
2022-08-17T04:14:51.876Z,87.44
2022-08-17T04:17:20.049Z,88.02
2022-08-17T04:19:46.720Z,88.24
2022-08-17T04:22:30.626Z,86.67
2022-08-17T04:25:05.661Z,87.36
2022-08-17T04:27:32.354Z,86.74
2022-08-17T04:29:58.858Z,88.03
2022-08-17T04:33:04.386Z,87.33
2022-08-17T04:35:11.851Z,88.00
2022-08-17T04:37:38.282Z,87.89
2022-08-17T04:40:25.952Z,88.52
2022-08-17T04:43:07.291Z,88.09
2022-08-17T04:45:33.896Z,87.62
2022-08-17T04:48:01.240Z,87.43
2022-08-17T04:50:27.823Z,86.65
2022-08-17T04:52:54.488Z,87.78
2022-08-17T04:55:21.477Z,88.92
2022-08-17T04:57:48.012Z,88.61
2022-08-17T05:00:14.927Z,87.63
2022-08-17T05:02:50.921Z,88.29
2022-08-17T05:05:29.708Z,89.67
2022-08-17T05:08:00.781Z,91.23
2022-08-17T05:10:30.669Z,91.35
2022-08-17T05:13:02.948Z,91.71
2022-08-17T05:15:33.112Z,91.67
2022-08-17T05:18:04.074Z,91.89
2022-08-17T05:20:31.708Z,91.51
2022-08-17T05:23:00.913Z,90.82
2022-08-17T05:25:37.558Z,90.27
2022-08-17T05:28:05.274Z,89.86
2022-08-17T05:30:33.946Z,90.71
2022-08-17T05:33:03.872Z,89.40
2022-08-17T05:35:33.371Z,89.64
2022-08-17T05:38:00.785Z,89.81
2022-08-17T05:40:28.379Z,89.64
2022-08-17T05:43:39.041Z,89.63
2022-08-17T05:46:18.965Z,89.59
2022-08-17T05:48:51.841Z,89.39
2022-08-17T05:51:37.045Z,89.89
2022-08-17T05:54:24.742Z,88.94
2022-08-17T05:57:15.150Z,88.62
2022-08-17T05:59:41.849Z,86.79
2022-08-17T06:02:18.622Z,86.96
2022-08-17T06:05:10.325Z,83.32
2022-08-17T06:07:52.677Z,82.73
2022-08-17T06:10:32.981Z,83.99
2022-08-17T06:13:14.453Z,83.29
2022-08-17T06:15:43.505Z,83.42
2022-08-17T06:18:18.906Z,82.25
2022-08-17T06:20:56.477Z,83.76
2022-08-17T06:23:37.474Z,83.47
2022-08-17T06:26:31.225Z,83.73
2022-08-17T06:29:30.699Z,84.42
2022-08-17T06:32:06.265Z,85.94
2022-08-17T06:34:37.989Z,85.58
2022-08-17T06:37:39.178Z,85.85
2022-08-17T06:40:18.644Z,86.48
2022-08-17T06:43:05.681Z,87.91
2022-08-17T06:45:49.203Z,88.51
2022-08-17T06:48:31.663Z,85.25
2022-08-17T06:51:11.229Z,82.83
2022-08-17T06:53:48.282Z,83.91
2022-08-17T06:56:27.064Z,81.62
2022-08-17T06:59:19.612Z,81.82
2022-08-17T07:01:49.614Z,84.44
2022-08-17T07:04:23.465Z,83.18
2022-08-17T07:07:23.001Z,82.74
2022-08-17T07:09:51.305Z,82.24
2022-08-17T07:12:22.483Z,81.02
2022-08-17T07:14:53.210Z,82.48
2022-08-17T07:17:22.397Z,82.44
2022-08-17T07:20:17.809Z,80.88
2022-08-17T07:23:19.054Z,80.64
2022-08-17T07:25:45.705Z,81.57
2022-08-17T07:28:12.970Z,82.21
2022-08-17T07:30:46.983Z,81.59
2022-08-17T07:33:21.053Z,82.30
2022-08-17T07:35:48.523Z,83.18
2022-08-17T07:38:30.344Z,82.15
2022-08-17T07:41:02.041Z,84.01
2022-08-17T07:43:39.607Z,83.07
2022-08-17T07:46:32.378Z,83.97
2022-08-17T07:49:07.892Z,83.43
2022-08-17T07:51:43.903Z,82.71
2022-08-17T07:54:22.425Z,83.02
2022-08-17T07:56:55.517Z,83.80
2022-08-17T07:59:34.402Z,84.54
2022-08-17T08:02:03.563Z,83.79
2022-08-17T08:05:00.198Z,84.61
2022-08-17T08:07:38.146Z,80.43
2022-08-17T08:10:16.806Z,82.10
2022-08-17T08:12:53.694Z,83.39
2022-08-17T08:15:22.239Z,83.90
2022-08-17T08:17:57.698Z,83.36
2022-08-17T08:20:51.358Z,83.60
2022-08-17T08:23:57.378Z,82.21
2022-08-17T08:26:55.414Z,84.13
2022-08-17T08:29:31.026Z,84.91
2022-08-17T08:32:03.932Z,84.27
2022-08-17T08:35:08.200Z,84.49
2022-08-17T08:37:59.860Z,83.48
2022-08-17T08:40:54.333Z,80.42
2022-08-17T08:43:29.932Z,79.16
2022-08-17T08:46:02.382Z,80.95
2022-08-17T08:48:58.417Z,81.13
2022-08-17T08:51:48.435Z,80.35
2022-08-17T08:54:22.324Z,81.20
2022-08-17T08:57:23.177Z,81.66
2022-08-17T09:00:15.652Z,81.03
2022-08-17T09:03:02.907Z,82.58
2022-08-17T09:05:54.117Z,82.71
2022-08-17T09:08:43.695Z,83.90
2022-08-17T09:11:22.387Z,83.68
2022-08-17T09:13:58.168Z,83.62
2022-08-17T09:16:37.370Z,82.66
2022-08-17T09:19:11.897Z,81.94
2022-08-17T09:21:49.703Z,81.52
2022-08-17T09:24:33.510Z,81.81
2022-08-17T09:27:11.538Z,81.85
2022-08-17T09:29:43.502Z,82.74
2022-08-17T09:32:19.596Z,81.56
2022-08-17T09:35:01.420Z,81.98
2022-08-17T09:37:37.523Z,82.88
2022-08-17T09:40:17.465Z,83.59
2022-08-17T09:42:52.392Z,84.50
2022-08-17T09:45:26.338Z,83.38
2022-08-17T09:47:59.896Z,82.98
2022-08-17T09:51:04.705Z,82.83
2022-08-17T09:53:35.637Z,83.16
2022-08-17T09:56:12.536Z,83.39
2022-08-17T09:59:09.132Z,82.30
2022-08-17T10:01:43.231Z,83.42
2022-08-17T10:04:29.880Z,82.30
2022-08-17T10:07:30.542Z,82.31
2022-08-17T10:10:03.097Z,82.67
2022-08-17T10:12:46.484Z,82.81
2022-08-17T10:15:22.453Z,82.99
2022-08-17T10:18:20.636Z,84.23
2022-08-17T10:21:15.485Z,86.30
2022-08-17T10:24:02.702Z,85.11
2022-08-17T10:26:46.303Z,86.04
2022-08-17T10:29:28.883Z,86.32
2022-08-17T10:32:01.530Z,87.19
2022-08-17T10:34:41.212Z,87.10
2022-08-17T10:37:37.693Z,88.60
2022-08-17T10:40:24.518Z,89.28
2022-08-17T10:43:36.596Z,89.56
2022-08-17T10:46:46.256Z,89.81
2022-08-17T10:49:18.810Z,88.85
2022-08-17T10:51:48.009Z,89.08
2022-08-17T10:54:58.092Z,89.33
2022-08-17T10:57:38.946Z,88.24
2022-08-17T11:00:07.904Z,86.88
2022-08-17T11:03:01.041Z,88.26
2022-08-17T11:05:44.145Z,87.50
2022-08-17T11:08:33.397Z,87.61
2022-08-17T11:11:19.743Z,85.73
2022-08-17T11:14:11.238Z,84.94
2022-08-17T11:16:57.292Z,84.03
2022-08-17T11:19:43.426Z,84.40
2022-08-17T11:22:34.027Z,82.92
2022-08-17T11:25:17.210Z,81.29
2022-08-17T11:27:53.359Z,80.85
2022-08-17T11:30:46.893Z,81.81
2022-08-17T11:33:33.924Z,81.81
2022-08-17T11:36:33.028Z,82.14
2022-08-17T11:39:17.547Z,81.92
2022-08-17T11:42:22.002Z,81.66
2022-08-17T11:44:55.642Z,83.14
2022-08-17T11:48:27.065Z,85.58
2022-08-17T11:51:19.224Z,86.14
2022-08-17T11:53:45.823Z,86.07
2022-08-17T11:56:32.767Z,85.49
2022-08-17T11:59:00.807Z,85.29
2022-08-17T12:01:28.966Z,86.55
2022-08-17T12:04:24.975Z,85.38
2022-08-17T12:06:56.859Z,86.38
2022-08-17T12:09:29.835Z,85.54
2022-08-17T12:12:14.549Z,85.93
2022-08-17T12:15:09.459Z,86.73
2022-08-17T12:17:41.207Z,85.38
2022-08-17T12:20:33.561Z,86.11
2022-08-17T12:23:17.126Z,85.31
2022-08-17T12:25:49.451Z,85.28
2022-08-17T12:28:30.640Z,84.99
2022-08-17T12:31:03.726Z,86.44
2022-08-17T12:33:30.689Z,85.82
2022-08-17T12:36:03.922Z,85.73
2022-08-17T12:38:36.063Z,85.60
2022-08-17T12:41:24.978Z,86.59
2022-08-17T12:44:03.761Z,87.45
2022-08-17T12:46:48.245Z,87.24
2022-08-17T12:49:16.660Z,87.51
2022-08-17T12:51:48.149Z,88.71
2022-08-17T12:54:38.003Z,88.04
2022-08-17T12:57:20.471Z,88.28
2022-08-17T12:59:52.480Z,87.64
2022-08-17T13:02:24.371Z,88.11
2022-08-17T13:04:53.407Z,87.40
2022-08-17T13:07:28.409Z,87.52
2022-08-17T13:09:54.994Z,88.38
2022-08-17T13:12:39.554Z,88.40
2022-08-17T13:15:06.213Z,87.54
2022-08-17T13:17:35.974Z,87.88
2022-08-17T13:20:16.251Z,88.11
2022-08-17T13:22:44.325Z,88.83
2022-08-17T13:25:16.333Z,87.98
2022-08-17T13:27:50.665Z,88.74
2022-08-17T13:30:23.765Z,87.48
2022-08-17T13:32:50.404Z,85.06
2022-08-17T13:35:41.013Z,86.50
2022-08-17T13:38:36.065Z,87.81
2022-08-17T13:41:03.957Z,88.00
2022-08-17T13:43:37.567Z,87.75
2022-08-17T13:46:21.718Z,87.21
2022-08-17T13:49:11.458Z,87.47
2022-08-17T13:51:46.352Z,87.62
2022-08-17T13:54:33.192Z,87.28
2022-08-17T13:57:06.552Z,87.99
2022-08-17T13:59:54.616Z,86.81
2022-08-17T14:02:25.974Z,86.31
2022-08-17T14:04:55.675Z,86.15
2022-08-17T14:07:31.130Z,86.46
2022-08-17T14:10:17.744Z,86.73
2022-08-17T14:12:45.412Z,87.00
2022-08-17T14:15:13.992Z,85.92
2022-08-17T14:17:40.712Z,85.56
2022-08-17T14:20:10.616Z,85.67
2022-08-17T14:22:39.549Z,85.45
2022-08-17T14:25:10.377Z,85.14
2022-08-17T14:27:52.222Z,85.59
2022-08-17T14:30:22.344Z,84.61
2022-08-17T14:32:49.572Z,84.18
2022-08-17T14:35:16.172Z,85.71
2022-08-17T14:37:44.622Z,84.77
2022-08-17T14:40:14.212Z,85.19
2022-08-17T14:42:43.908Z,85.30
2022-08-17T14:45:31.838Z,84.42
2022-08-17T14:47:59.292Z,85.85
2022-08-17T14:50:25.913Z,86.08
2022-08-17T14:52:53.928Z,85.27
2022-08-17T14:55:22.373Z,85.46
2022-08-17T14:57:49.089Z,84.82
2022-08-17T15:00:16.634Z,85.47
2022-08-17T15:02:50.854Z,86.04
2022-08-17T15:05:17.692Z,86.74
2022-08-17T15:07:44.546Z,86.40
2022-08-17T15:10:13.248Z,86.95
2022-08-17T15:12:40.924Z,86.36
2022-08-17T15:15:10.010Z,86.29
2022-08-17T15:17:44.503Z,86.56
2022-08-17T15:20:26.361Z,87.20
2022-08-17T15:22:55.302Z,87.16
2022-08-17T15:25:22.402Z,86.28
2022-08-17T15:27:49.148Z,86.74
2022-08-17T15:30:16.055Z,87.91
2022-08-17T15:32:46.865Z,88.59
2022-08-17T15:35:26.823Z,87.17
2022-08-17T15:38:06.498Z,86.61
2022-08-17T15:40:40.411Z,86.37
2022-08-17T15:43:11.225Z,86.14
2022-08-17T15:45:38.285Z,85.91
2022-08-17T15:48:04.896Z,86.48
2022-08-17T15:50:31.981Z,85.64
2022-08-17T15:53:00.783Z,86.08
2022-08-17T15:55:28.990Z,85.70
2022-08-17T15:57:55.519Z,85.89
2022-08-17T16:00:23.994Z,85.51
2022-08-17T16:03:14.597Z,86.62
2022-08-17T16:05:43.471Z,84.83
2022-08-17T16:08:11.053Z,86.08
2022-08-17T16:10:38.191Z,85.81
2022-08-17T16:13:04.694Z,86.80
2022-08-17T16:15:34.068Z,85.79
2022-08-17T16:18:00.583Z,86.24
2022-08-17T16:20:27.241Z,86.96
2022-08-17T16:22:54.129Z,86.91
2022-08-17T16:25:49.016Z,87.24
2022-08-17T16:28:16.162Z,87.36
2022-08-17T16:30:44.485Z,87.13
2022-08-17T16:33:12.176Z,86.54
2022-08-17T16:35:41.880Z,86.17
2022-08-17T16:38:09.424Z,86.62
2022-08-17T16:40:36.452Z,86.77
2022-08-17T16:43:04.331Z,86.19
2022-08-17T16:45:36.273Z,85.46
2022-08-17T16:48:02.889Z,86.15
2022-08-17T16:50:29.758Z,86.33
2022-08-17T16:53:08.424Z,86.52
2022-08-17T16:55:35.851Z,86.07
2022-08-17T16:58:06.397Z,86.93
2022-08-17T17:00:34.057Z,86.16
2022-08-17T17:03:19.128Z,85.61
2022-08-17T17:06:18.695Z,86.31
2022-08-17T17:08:55.862Z,86.25
2022-08-17T17:11:34.210Z,86.08
2022-08-17T17:14:04.784Z,85.96
2022-08-17T17:16:45.719Z,86.13
2022-08-17T17:19:51.354Z,86.13
2022-08-17T17:22:24.429Z,86.17
2022-08-17T17:25:07.692Z,86.23
2022-08-17T17:27:47.315Z,86.63
2022-08-17T17:30:20.766Z,86.63
2022-08-17T17:33:06.157Z,86.24
2022-08-17T17:35:33.887Z,86.76
2022-08-17T17:38:05.449Z,86.85
2022-08-17T17:40:42.737Z,86.90
2022-08-17T17:43:37.184Z,86.86
2022-08-17T17:46:26.485Z,86.41
2022-08-17T17:48:52.825Z,85.47
2022-08-17T17:52:09.075Z,85.37
2022-08-17T17:54:46.794Z,84.67
2022-08-17T17:57:38.270Z,84.59
2022-08-17T18:00:22.070Z,84.77
2022-08-17T18:03:12.649Z,85.31
2022-08-17T18:06:25.562Z,84.97
2022-08-17T18:09:39.970Z,85.36
2022-08-17T18:12:12.182Z,84.68
2022-08-17T18:14:58.311Z,84.46
2022-08-17T18:17:24.755Z,84.11
2022-08-17T18:19:55.252Z,82.91
2022-08-17T18:22:22.743Z,83.95
2022-08-17T18:24:56.124Z,84.23
2022-08-17T18:27:28.301Z,83.20
2022-08-17T18:29:56.919Z,83.60
2022-08-17T18:32:23.396Z,83.72
2022-08-17T18:34:56.599Z,82.87
2022-08-17T18:37:46.589Z,82.68
2022-08-17T18:40:16.327Z,83.31
2022-08-17T18:43:04.551Z,83.32
2022-08-17T18:45:34.777Z,82.97
2022-08-17T18:48:02.030Z,82.37
2022-08-17T18:50:43.817Z,82.26
2022-08-17T18:53:26.755Z,82.53
2022-08-17T18:56:33.438Z,82.95
2022-08-17T18:59:11.279Z,82.84
2022-08-17T19:02:10.022Z,82.74
2022-08-17T19:05:06.180Z,82.28
2022-08-17T19:07:35.749Z,81.42
2022-08-17T19:10:28.616Z,80.92
2022-08-17T19:13:00.296Z,80.62
2022-08-17T19:15:35.866Z,80.86
2022-08-17T19:18:15.806Z,81.08
2022-08-17T19:20:53.766Z,81.44
2022-08-17T19:23:53.366Z,80.85
2022-08-17T19:26:53.513Z,82.78
2022-08-17T19:29:36.469Z,80.52
2022-08-17T19:32:04.072Z,80.43
2022-08-17T19:34:34.439Z,80.59
2022-08-17T19:37:29.981Z,80.78
2022-08-17T19:40:48.814Z,80.14
2022-08-17T19:43:15.311Z,79.65
2022-08-17T19:45:50.176Z,79.10
2022-08-17T19:48:38.444Z,78.22
2022-08-17T19:51:15.563Z,79.16
2022-08-17T19:54:26.931Z,79.42
2022-08-17T19:57:22.200Z,80.58
2022-08-17T19:59:58.642Z,81.25
2022-08-17T20:02:49.761Z,81.35
2022-08-17T20:05:30.690Z,80.91
2022-08-17T20:08:11.504Z,82.14
2022-08-17T20:11:10.270Z,81.24
2022-08-17T20:13:41.433Z,81.28
2022-08-17T20:16:10.017Z,81.24
2022-08-17T20:18:48.532Z,80.79
2022-08-17T20:21:20.080Z,80.30
2022-08-17T20:23:56.350Z,80.26
2022-08-17T20:26:44.107Z,80.27
2022-08-17T20:29:39.971Z,81.44
2022-08-17T20:32:22.233Z,81.51
2022-08-17T20:35:00.367Z,81.38
2022-08-17T20:37:31.666Z,82.14
2022-08-17T20:39:58.044Z,81.39
2022-08-17T20:42:24.501Z,81.18
2022-08-17T20:44:57.596Z,81.10
2022-08-17T20:48:01.215Z,81.93
2022-08-17T20:50:34.815Z,80.45
2022-08-17T20:53:08.110Z,80.29
2022-08-17T20:55:51.791Z,79.84
2022-08-17T20:58:30.911Z,80.12
2022-08-17T21:00:57.696Z,80.95
2022-08-17T21:03:24.334Z,82.61
2022-08-17T21:05:59.943Z,83.53
2022-08-17T21:08:45.674Z,82.83
2022-08-17T21:12:02.306Z,84.36
2022-08-17T21:14:29.510Z,83.70
2022-08-17T21:16:59.205Z,83.19
2022-08-17T21:20:10.479Z,83.66
2022-08-17T21:23:03.452Z,82.47
2022-08-17T21:25:59.285Z,81.99
2022-08-17T21:29:01.085Z,83.05
2022-08-17T21:31:43.043Z,82.27
2022-08-17T21:34:16.814Z,83.12
2022-08-17T21:36:45.682Z,81.71
2022-08-17T21:39:15.893Z,82.77
2022-08-17T21:41:53.574Z,82.45
2022-08-17T21:44:31.327Z,83.44
2022-08-17T21:47:13.820Z,83.40
2022-08-17T21:49:40.660Z,82.35
2022-08-17T21:52:07.470Z,81.59
2022-08-17T21:54:39.864Z,81.22
2022-08-17T21:57:16.254Z,81.31
2022-08-17T21:59:44.143Z,80.92
2022-08-17T22:02:20.810Z,81.35
2022-08-17T22:05:02.480Z,81.19
2022-08-17T22:07:39.746Z,81.87
2022-08-17T22:10:26.507Z,81.49
2022-08-17T22:13:24.114Z,81.69
2022-08-17T22:16:29.002Z,82.28
2022-08-17T22:18:58.581Z,82.54
2022-08-17T22:21:25.574Z,83.45
2022-08-17T22:24:05.935Z,83.42
2022-08-17T22:27:10.219Z,82.97
2022-08-17T22:29:44.462Z,83.28
2022-08-17T22:32:10.970Z,82.78
2022-08-17T22:34:38.993Z,83.17
2022-08-17T22:37:27.237Z,83.35
2022-08-17T22:39:58.966Z,82.80
2022-08-17T22:42:25.778Z,82.33
2022-08-17T22:44:54.528Z,82.67
2022-08-17T22:47:30.998Z,82.39
2022-08-17T22:50:04.502Z,81.33
2022-08-17T22:53:03.369Z,81.42
2022-08-17T22:55:51.706Z,80.99
2022-08-17T22:58:40.586Z,80.91
2022-08-17T23:01:43.501Z,80.58
2022-08-17T23:04:29.244Z,81.40
2022-08-17T23:06:55.863Z,80.30
2022-08-17T23:09:22.431Z,79.39
2022-08-17T23:11:52.549Z,81.19
2022-08-17T23:14:20.866Z,80.63
2022-08-17T23:16:50.947Z,81.46
2022-08-17T23:19:20.482Z,81.23
2022-08-17T23:21:51.004Z,81.24
2022-08-17T23:24:23.098Z,81.10
2022-08-17T23:26:50.065Z,81.50
2022-08-17T23:29:16.583Z,80.42
2022-08-17T23:31:43.203Z,80.65
2022-08-17T23:34:13.141Z,81.51
2022-08-17T23:36:39.644Z,82.03
2022-08-17T23:39:09.553Z,82.94
2022-08-17T23:41:39.898Z,82.30
2022-08-17T23:44:07.101Z,82.75
2022-08-17T23:46:34.671Z,83.08
2022-08-17T23:49:01.261Z,83.12
2022-08-17T23:51:31.579Z,82.99
2022-08-17T23:54:11.580Z,82.31
2022-08-17T23:56:46.540Z,82.80
2022-08-17T23:59:18.286Z,83.00
